Time;durP1;ratioP1;P1;durP2;ratioP2;P2;SDS_P1;SDS_P2;PMS_P1;PMS_P2;Temp;Humidity;BMP_temperature;BMP_pressure;BME280_temperature;BME280_humidity;BME280_pressure;Samples;Min_cycle;Max_cycle;Signal;HPM_P1;HPM_P2
2022/09/07 00:02:13;;;;;;;0.43;0.30;;;24.30;66.70;;;;;;5001960;28;20080;-20
2022/09/07 00:04:38;;;;;;;1.10;0.35;;;24.30;66.50;;;;;;5018739;28;20555;-20
2022/09/07 00:07:04;;;;;;;0.40;0.40;;;24.30;66.50;;;;;;5009116;28;20052;-23
2022/09/07 00:09:29;;;;;;;0.45;0.30;;;24.30;66.60;;;;;;4997003;28;20060;-23
2022/09/07 00:11:55;;;;;;;0.47;0.30;;;24.30;66.60;;;;;;5004244;28;20034;-25
2022/09/07 00:14:21;;;;;;;0.35;0.35;;;24.30;66.70;;;;;;5006040;28;20038;-20
2022/09/07 00:16:46;;;;;;;0.28;0.28;;;24.20;66.50;;;;;;5019929;28;20077;-20
2022/09/07 00:19:12;;;;;;;0.20;0.20;;;24.30;66.50;;;;;;4998369;28;20129;-23
2022/09/07 00:21:37;;;;;;;0.68;0.30;;;24.20;66.60;;;;;;4994705;28;20065;-19
2022/09/07 00:24:03;;;;;;;0.20;0.20;;;24.20;66.50;;;;;;5005528;28;20038;-22
2022/09/07 00:26:29;;;;;;;0.52;0.40;;;24.30;66.60;;;;;;4995202;28;20065;-20
2022/09/07 00:28:59;;;;;;;0.40;0.28;;;24.20;66.60;;;;;;5020346;28;20108;-20
2022/09/07 00:31:25;;;;;;;0.77;0.20;;;24.20;66.60;;;;;;5002542;28;20038;-20
2022/09/07 00:33:52;;;;;;;0.45;0.40;;;24.20;66.70;;;;;;5009351;28;20040;-23
2022/09/07 00:36:18;;;;;;;0.25;0.20;;;24.20;66.70;;;;;;4996981;28;20099;-20
2022/09/07 00:38:44;;;;;;;1.55;0.50;;;24.20;66.60;;;;;;5007024;28;20180;-20
2022/09/07 00:41:09;;;;;;;1.05;0.30;;;24.20;66.60;;;;;;4997045;28;20132;-20
2022/09/07 00:43:36;;;;;;;0.65;0.30;;;24.20;66.50;;;;;;4996195;28;20054;-20
2022/09/07 00:46:03;;;;;;;0.10;0.10;;;24.20;66.80;;;;;;5001118;28;20527;-22
2022/09/07 00:48:49;;;;;;;0.32;0.32;;;24.20;66.60;;;;;;5012893;28;20510;-20
2022/09/07 00:51:20;;;;;;;0.45;0.30;;;24.20;66.50;;;;;;4999500;28;20114;-20
2022/09/07 00:53:54;;;;;;;0.40;0.40;;;24.20;66.70;;;;;;4995006;28;20026;-21
2022/09/07 00:56:21;;;;;;;0.52;0.52;;;24.20;66.70;;;;;;4982954;28;20050;-20
2022/09/07 00:58:46;;;;;;;0.90;0.35;;;24.20;66.70;;;;;;5004582;28;20036;-23
2022/09/07 01:01:12;;;;;;;0.80;0.50;;;24.20;66.50;;;;;;5000153;28;20041;-24
2022/09/07 01:03:41;;;;;;;0.50;0.50;;;24.20;66.70;;;;;;4997697;28;20138;-24
2022/09/07 01:06:16;;;;;;;0.30;0.30;;;24.20;66.50;;;;;;4995351;28;20054;-22
2022/09/07 01:08:42;;;;;;;0.90;0.40;;;24.20;66.60;;;;;;4996875;28;20500;-24
2022/09/07 01:11:08;;;;;;;1.85;0.32;;;24.20;67.30;;;;;;4999582;28;20508;-21
2022/09/07 01:13:34;;;;;;;1.35;0.38;;;24.20;66.80;;;;;;4999192;28;20041;-25
2022/09/07 01:16:35;;;;;;;0.40;0.40;;;24.20;66.90;;;;;;4995355;28;20404;-21
2022/09/07 01:19:25;;;;;;;0.30;0.30;;;24.20;66.60;;;;;;4981239;28;20038;-23
2022/09/07 01:22:15;;;;;;;0.47;0.20;;;24.20;66.70;;;;;;4994594;28;20045;-24
2022/09/07 01:25:25;;;;;;;0.20;0.20;;;24.20;66.60;;;;;;4997532;28;20478;-21
2022/09/07 01:28:10;;;;;;;0.50;0.50;;;24.20;66.70;;;;;;5036905;28;20033;-27
2022/09/07 01:30:36;;;;;;;;;;;24.20;66.70;;;;;;5037897;28;20036;-24
2022/09/07 01:33:26;;;;;;;0.63;0.45;;;24.20;66.50;;;;;;5033820;28;20573;-21
2022/09/07 01:36:10;;;;;;;0.25;0.17;;;24.20;66.60;;;;;;5037346;28;22966;-22
2022/09/07 01:38:43;;;;;;;0.22;0.20;;;24.20;66.60;;;;;;5035718;28;20048;-21
2022/09/07 01:41:35;;;;;;;0.85;0.70;;;24.20;66.80;;;;;;5021179;28;20045;-25
2022/09/07 01:44:17;;;;;;;0.45;0.30;;;24.20;66.70;;;;;;5037452;28;20037;-22
2022/09/07 01:47:01;;;;;;;0.45;0.30;;;24.20;67.00;;;;;;5019850;28;20432;-21
2022/09/07 01:49:40;;;;;;;0.55;0.40;;;24.20;66.70;;;;;;5021399;28;20037;-21
2022/09/07 01:52:28;;;;;;;0.43;0.30;;;24.10;66.60;;;;;;5026415;28;20640;-20
2022/09/07 01:55:04;;;;;;;0.22;0.20;;;24.20;66.80;;;;;;5025637;28;20053;-23
2022/09/07 01:57:42;;;;;;;0.47;0.30;;;24.10;66.70;;;;;;5031566;28;20057;-22
2022/09/07 02:00:18;;;;;;;0.52;0.30;;;24.10;66.70;;;;;;4996107;28;20669;-26
2022/09/07 02:02:50;;;;;;;0.40;0.30;;;24.10;66.70;;;;;;4997373;28;20044;-23
2022/09/07 02:05:19;;;;;;;0.43;0.30;;;24.10;66.80;;;;;;4982517;28;20111;-26
2022/09/07 02:07:51;;;;;;;0.50;0.40;;;24.10;66.70;;;;;;4997488;28;20102;-22
2022/09/07 02:10:51;;;;;;;1.00;0.40;;;24.20;66.70;;;;;;4983667;28;20045;-22
2022/09/07 02:13:30;;;;;;;0.40;0.28;;;24.10;66.70;;;;;;4993456;28;20030;-25
2022/09/07 02:16:22;;;;;;;0.35;0.30;;;24.10;66.70;;;;;;4999127;28;20147;-25
2022/09/07 02:18:50;;;;;;;0.30;0.25;;;24.10;66.80;;;;;;4994434;28;20038;-25
2022/09/07 02:21:20;;;;;;;0.60;0.40;;;24.10;67.70;;;;;;4999391;28;20115;-23
2022/09/07 02:23:49;;;;;;;0.50;0.40;;;24.10;66.80;;;;;;5002532;28;20038;-24
2022/09/07 02:26:17;;;;;;;1.23;0.30;;;24.10;66.70;;;;;;5002315;28;20075;-24
2022/09/07 02:28:42;;;;;;;0.82;0.28;;;24.10;66.70;;;;;;5002835;28;20044;-22
2022/09/07 02:31:08;;;;;;;0.30;0.20;;;24.10;66.60;;;;;;5003947;28;20045;-25
2022/09/07 02:33:34;;;;;;;0.30;0.20;;;24.10;66.70;;;;;;5002082;28;20054;-22
2022/09/07 02:36:00;;;;;;;0.68;0.45;;;24.10;66.50;;;;;;5002524;28;20419;-22
2022/09/07 02:38:26;;;;;;;0.60;0.40;;;24.10;66.70;;;;;;4999392;28;20162;-22
2022/09/07 02:40:55;;;;;;;0.45;0.30;;;24.10;66.70;;;;;;5002953;28;20507;-22
2022/09/07 02:43:21;;;;;;;0.20;0.20;;;24.10;66.70;;;;;;5005931;28;20037;-22
2022/09/07 02:46:27;;;;;;;1.65;0.30;;;24.10;66.70;;;;;;4989693;28;20042;-26
2022/09/07 02:49:25;;;;;;;0.52;0.30;;;24.10;66.60;;;;;;4999738;28;20525;-25
2022/09/07 02:52:29;;;;;;;0.50;0.30;;;24.10;67.50;;;;;;5001603;28;20057;-22
2022/09/07 02:55:31;;;;;;;0.60;0.30;;;24.10;66.70;;;;;;4992264;28;20066;-25
2022/09/07 02:58:09;;;;;;;1.45;0.75;;;24.10;66.60;;;;;;5004777;28;20751;-22
2022/09/07 03:01:00;;;;;;;0.57;0.20;;;24.10;66.70;;;;;;5000824;28;20052;-26
2022/09/07 03:03:44;;;;;;;0.30;0.30;;;24.10;66.60;;;;;;4998942;28;20064;-24
2022/09/07 03:06:18;;;;;;;0.38;0.20;;;24.10;66.60;;;;;;5000597;28;20084;-24
2022/09/07 03:08:49;;;;;;;0.43;0.30;;;24.00;66.70;;;;;;5003649;28;20056;-22
2022/09/07 03:11:15;;;;;;;0.40;0.30;;;24.10;66.70;;;;;;4986074;28;20050;-22
2022/09/07 03:13:40;;;;;;;0.63;0.40;;;24.00;66.60;;;;;;4983603;28;20803;-22
2022/09/07 03:16:10;;;;;;;0.20;0.20;;;24.10;66.60;;;;;;5004021;28;20123;-24
2022/09/07 03:18:35;;;;;;;0.55;0.30;;;24.00;66.70;;;;;;5000171;28;20064;-22
2022/09/07 03:21:01;;;;;;;0.40;0.30;;;24.00;66.60;;;;;;5002084;28;20505;-24
2022/09/07 03:23:26;;;;;;;0.63;0.25;;;24.00;66.60;;;;;;4998012;28;20114;-28
2022/09/07 03:25:52;;;;;;;0.55;0.38;;;24.00;66.60;;;;;;5002787;28;20129;-25
2022/09/07 03:28:18;;;;;;;0.40;0.20;;;24.10;66.60;;;;;;5003314;28;20610;-23
2022/09/07 03:30:45;;;;;;;0.55;0.30;;;24.00;66.60;;;;;;5006600;28;20406;-22
2022/09/07 03:33:11;;;;;;;0.45;0.38;;;24.00;66.60;;;;;;4994375;28;20436;-22
2022/09/07 03:35:37;;;;;;;0.40;0.40;;;24.00;66.70;;;;;;5000845;28;20046;-23
2022/09/07 03:38:02;;;;;;;0.40;0.30;;;24.00;66.60;;;;;;5001639;28;20054;-24
2022/09/07 03:40:28;;;;;;;1.38;0.30;;;24.00;66.70;;;;;;4998920;28;20528;-22
2022/09/07 03:42:53;;;;;;;0.43;0.20;;;24.00;67.00;;;;;;5000153;28;20045;-22
2022/09/07 03:45:19;;;;;;;0.35;0.28;;;24.00;66.70;;;;;;5001617;28;20048;-26
2022/09/07 03:47:44;;;;;;;0.30;0.22;;;24.00;66.60;;;;;;5001381;28;20085;-24
2022/09/07 03:50:10;;;;;;;0.40;0.20;;;24.00;66.80;;;;;;4997945;28;20050;-24
2022/09/07 03:52:36;;;;;;;0.90;0.43;;;24.00;66.80;;;;;;4996888;28;20109;-24
2022/09/07 03:55:02;;;;;;;0.57;0.40;;;24.00;66.70;;;;;;5002930;28;20049;-22
2022/09/07 03:57:28;;;;;;;3.85;0.45;;;24.00;66.70;;;;;;5001973;28;20072;-23
2022/09/07 03:59:53;;;;;;;0.40;0.20;;;24.00;66.80;;;;;;4999208;28;21282;-23
2022/09/07 04:02:19;;;;;;;0.43;0.20;;;24.00;66.80;;;;;;5001521;28;20053;-23
2022/09/07 04:04:44;;;;;;;0.32;0.32;;;24.00;66.90;;;;;;5002398;28;20038;-22
2022/09/07 04:07:10;;;;;;;0.30;0.28;;;24.00;67.60;;;;;;5000960;28;20072;-24
2022/09/07 04:09:36;;;;;;;0.32;0.30;;;24.00;66.80;;;;;;5000243;28;21038;-24
2022/09/07 04:12:02;;;;;;;0.50;0.30;;;24.00;66.80;;;;;;5002066;28;20046;-23
2022/09/07 04:14:27;;;;;;;2.78;0.38;;;24.00;66.70;;;;;;5001230;28;20065;-24
2022/09/07 04:16:53;;;;;;;0.45;0.40;;;24.00;66.90;;;;;;5000558;28;20068;-23
2022/09/07 04:19:19;;;;;;;0.43;0.30;;;24.00;66.90;;;;;;5002150;28;20064;-23
2022/09/07 04:21:45;;;;;;;0.55;0.40;;;24.00;66.70;;;;;;5000556;28;20045;-22
2022/09/07 04:24:12;;;;;;;1.38;0.30;;;24.00;66.60;;;;;;5000947;28;20045;-22
2022/09/07 04:26:37;;;;;;;0.45;0.30;;;24.00;67.40;;;;;;5003290;28;20045;-30
2022/09/07 04:29:03;;;;;;;0.30;0.30;;;24.00;66.70;;;;;;5000209;28;20053;-23
2022/09/07 04:31:29;;;;;;;0.70;0.47;;;24.00;66.70;;;;;;5001645;28;20049;-22
2022/09/07 04:33:54;;;;;;;0.35;0.32;;;23.90;66.80;;;;;;4997792;28;20038;-23
2022/09/07 04:36:20;;;;;;;0.20;0.20;;;24.00;66.70;;;;;;5001509;28;20050;-22
2022/09/07 04:38:46;;;;;;;0.22;0.20;;;24.00;66.90;;;;;;5002124;28;20041;-22
2022/09/07 04:41:16;;;;;;;1.48;0.75;;;24.00;66.70;;;;;;4999964;28;20050;-23
2022/09/07 04:43:42;;;;;;;0.30;0.30;;;23.90;66.70;;;;;;5002852;28;20425;-23
2022/09/07 04:46:13;;;;;;;0.57;0.30;;;24.00;66.70;;;;;;4999109;28;21534;-22
2022/09/07 04:48:39;;;;;;;0.45;0.20;;;24.00;66.60;;;;;;4995684;28;20041;-25
2022/09/07 04:51:05;;;;;;;0.95;0.20;;;24.00;66.60;;;;;;4998817;28;20042;-24
2022/09/07 04:53:32;;;;;;;0.35;0.20;;;24.00;66.50;;;;;;5006624;28;20121;-22
2022/09/07 04:55:58;;;;;;;4.05;0.30;;;24.00;66.60;;;;;;5003877;28;20132;-23
2022/09/07 04:58:23;;;;;;;0.50;0.30;;;24.00;66.70;;;;;;5014435;28;20044;-22
2022/09/07 05:00:49;;;;;;;0.40;0.40;;;24.00;66.80;;;;;;5005833;28;20556;-24
2022/09/07 05:03:15;;;;;;;0.50;0.40;;;23.90;66.70;;;;;;4996349;28;20053;-26
2022/09/07 05:05:40;;;;;;;1.15;0.35;;;23.90;66.70;;;;;;5001132;28;20050;-28
2022/09/07 05:08:06;;;;;;;0.73;0.40;;;23.90;66.90;;;;;;4999669;28;20049;-25
2022/09/07 05:10:31;;;;;;;0.20;0.20;;;23.90;66.50;;;;;;4996528;28;20038;-24
2022/09/07 05:12:57;;;;;;;0.52;0.28;;;24.00;66.90;;;;;;4997849;28;20038;-22
2022/09/07 05:15:23;;;;;;;0.60;0.25;;;23.90;67.10;;;;;;4999836;28;20508;-25
2022/09/07 05:17:49;;;;;;;0.82;0.50;;;23.90;67.20;;;;;;4990250;28;20165;-24
2022/09/07 05:20:15;;;;;;;0.63;0.25;;;24.00;66.90;;;;;;4995918;28;20038;-23
2022/09/07 05:22:41;;;;;;;1.65;0.40;;;23.90;67.00;;;;;;4996754;28;20052;-25
2022/09/07 05:25:07;;;;;;;0.55;0.40;;;23.90;67.20;;;;;;5005687;28;20054;-26
2022/09/07 05:27:33;;;;;;;0.45;0.35;;;23.80;67.10;;;;;;4995634;28;20082;-29
2022/09/07 05:29:58;;;;;;;4.40;0.80;;;23.80;67.20;;;;;;4995023;28;20046;-21
2022/09/07 05:32:24;;;;;;;1.20;0.63;;;23.80;66.90;;;;;;4996532;28;20049;-22
2022/09/07 05:34:49;;;;;;;0.55;0.30;;;23.80;66.80;;;;;;4990835;28;20405;-26
2022/09/07 05:37:15;;;;;;;2.15;0.90;;;23.80;66.80;;;;;;4996507;28;20153;-23
2022/09/07 05:39:41;;;;;;;1.48;0.52;;;23.90;67.40;;;;;;4990523;28;20030;-22
2022/09/07 05:42:06;;;;;;;1.20;0.60;;;23.80;66.50;;;;;;4991021;28;20140;-23
2022/09/07 05:44:32;;;;;;;1.63;0.70;;;23.80;66.60;;;;;;4995582;28;20048;-25
2022/09/07 05:46:57;;;;;;;1.60;0.55;;;23.70;66.70;;;;;;4992310;28;20042;-21
2022/09/07 05:49:23;;;;;;;1.85;0.75;;;23.80;67.10;;;;;;4997976;28;20057;-22
2022/09/07 05:51:48;;;;;;;1.13;0.80;;;23.70;66.40;;;;;;4994339;28;20125;-23
2022/09/07 05:54:14;;;;;;;2.88;0.70;;;23.70;66.40;;;;;;4995161;28;20393;-25
2022/09/07 05:56:40;;;;;;;1.23;0.70;;;23.70;66.50;;;;;;4997385;28;20039;-24
2022/09/07 05:59:05;;;;;;;1.75;1.00;;;23.80;66.30;;;;;;5002293;28;20070;-24
2022/09/07 06:01:31;;;;;;;2.17;0.70;;;23.90;66.20;;;;;;5003095;28;20720;-23
2022/09/07 06:03:57;;;;;;;2.40;0.70;;;23.90;66.00;;;;;;4999700;28;20123;-24
2022/09/07 06:06:22;;;;;;;2.55;0.80;;;23.90;66.10;;;;;;5000667;28;20451;-22
2022/09/07 06:08:49;;;;;;;1.95;0.88;;;23.80;66.10;;;;;;5005818;28;20038;-25
2022/09/07 06:11:22;;;;;;;2.33;1.13;;;23.80;66.20;;;;;;5001417;28;20485;-22
2022/09/07 06:13:47;;;;;;;1.63;0.70;;;23.70;66.50;;;;;;5001584;28;21823;-26
2022/09/07 06:16:13;;;;;;;1.30;0.70;;;23.80;66.30;;;;;;4646562;28;10000410;-22
2022/09/07 06:18:41;;;;;;;0.88;0.57;;;23.70;66.60;;;;;;4995276;28;20133;-24
2022/09/07 06:21:07;;;;;;;3.05;0.98;;;23.80;66.40;;;;;;4995589;28;20129;-21
2022/09/07 06:23:34;;;;;;;2.08;0.80;;;23.80;66.20;;;;;;5000100;28;20061;-22
2022/09/07 06:25:59;;;;;;;1.27;0.70;;;23.80;66.30;;;;;;4996438;28;20513;-23
2022/09/07 06:28:29;;;;;;;1.50;0.90;;;23.80;66.20;;;;;;4998438;28;20173;-22
2022/09/07 06:31:02;;;;;;;1.52;0.68;;;23.80;66.30;;;;;;4997628;28;20048;-22
2022/09/07 06:33:28;;;;;;;1.30;0.70;;;23.80;66.30;;;;;;4999561;28;20053;-22
2022/09/07 06:36:04;;;;;;;2.47;1.10;;;23.90;66.00;;;;;;4998889;28;20046;-21
2022/09/07 06:38:31;;;;;;;2.05;0.93;;;23.90;66.00;;;;;;5001100;28;20405;-22
2022/09/07 06:41:08;;;;;;;1.40;0.60;;;23.80;66.00;;;;;;5000743;28;20037;-24
2022/09/07 06:43:33;;;;;;;2.17;0.93;;;23.80;66.20;;;;;;5001406;28;20069;-24
2022/09/07 06:45:59;;;;;;;1.92;0.80;;;23.80;66.30;;;;;;5002433;28;20416;-22
2022/09/07 06:48:25;;;;;;;1.80;0.82;;;23.80;66.30;;;;;;4997282;28;20050;-24
2022/09/07 06:50:55;;;;;;;1.98;0.90;;;23.80;66.20;;;;;;5003359;28;20133;-26
2022/09/07 06:53:20;;;;;;;2.10;1.20;;;23.90;66.10;;;;;;5002711;28;20057;-22
2022/09/07 06:55:46;;;;;;;1.60;0.90;;;23.80;65.90;;;;;;5000270;28;20046;-22
2022/09/07 06:58:12;;;;;;;1.27;0.88;;;23.90;65.90;;;;;;4995883;28;20051;-23
2022/09/07 07:00:37;;;;;;;1.40;0.90;;;23.90;65.90;;;;;;5000895;28;20052;-22
2022/09/07 07:03:03;;;;;;;1.58;0.85;;;23.90;66.00;;;;;;5004442;28;20532;-26
2022/09/07 07:05:30;;;;;;;3.05;0.80;;;23.90;66.10;;;;;;4997573;28;20433;-23
2022/09/07 07:07:56;;;;;;;1.23;0.68;;;23.80;66.50;;;;;;4996839;28;20037;-25
2022/09/07 07:10:22;;;;;;;3.63;0.60;;;23.80;67.50;;;;;;4998733;28;20050;-21
2022/09/07 07:12:47;;;;;;;3.78;0.90;;;23.80;68.30;;;;;;4994632;28;20042;-21
2022/09/07 07:15:13;;;;;;;2.63;0.75;;;23.80;68.20;;;;;;4998557;28;20422;-25
2022/09/07 07:17:39;;;;;;;5.03;1.33;;;23.80;68.00;;;;;;4998732;28;20325;-23
2022/09/07 07:20:05;;;;;;;1.33;0.75;;;23.80;67.60;;;;;;4996971;28;20030;-24
2022/09/07 07:22:31;;;;;;;4.38;0.90;;;23.80;68.00;;;;;;4998706;28;20041;-24
2022/09/07 07:24:57;;;;;;;1.95;0.77;;;23.80;67.80;;;;;;4998789;28;20049;-23
2022/09/07 07:27:22;;;;;;;1.83;1.00;;;23.80;67.60;;;;;;4995033;28;20057;-25
2022/09/07 07:29:48;;;;;;;2.45;0.60;;;23.80;67.90;;;;;;4995971;28;20081;-22
2022/09/07 07:32:14;;;;;;;1.10;0.70;;;23.80;67.80;;;;;;4995421;28;20191;-23
2022/09/07 07:34:40;;;;;;;3.45;0.90;;;23.80;67.00;;;;;;5002501;28;20170;-24
2022/09/07 07:37:05;;;;;;;1.40;0.85;;;23.90;67.40;;;;;;4998918;28;20050;-23
2022/09/07 07:39:31;;;;;;;3.35;1.15;;;23.80;67.40;;;;;;4996564;28;20587;-22
2022/09/07 07:41:56;;;;;;;1.70;0.90;;;23.90;67.30;;;;;;4997091;28;20054;-22
2022/09/07 07:44:22;;;;;;;4.40;1.88;;;23.90;67.40;;;;;;4999661;28;20102;-24
2022/09/07 07:46:50;;;;;;;1.63;0.60;;;23.90;67.20;;;;;;4995675;28;20050;-23
2022/09/07 07:49:16;;;;;;;1.25;0.77;;;23.90;67.10;;;;;;5000437;28;20053;-23
2022/09/07 07:51:42;;;;;;;1.33;0.70;;;23.90;67.00;;;;;;5001464;28;20344;-22
2022/09/07 07:54:07;;;;;;;1.33;0.73;;;23.90;66.90;;;;;;4999390;28;20132;-23
2022/09/07 07:56:33;;;;;;;2.72;0.80;;;23.90;66.70;;;;;;5000200;28;20075;-25
2022/09/07 07:58:58;;;;;;;3.47;0.60;;;23.90;66.60;;;;;;4998223;28;20512;-24
2022/09/07 08:01:24;;;;;;;1.95;0.88;;;23.90;66.70;;;;;;4998368;28;20049;-23
2022/09/07 08:03:50;;;;;;;1.50;0.60;;;23.90;66.60;;;;;;5003268;28;20042;-24
2022/09/07 08:06:17;;;;;;;1.30;0.70;;;23.90;66.60;;;;;;4995407;28;20392;-25
2022/09/07 08:08:43;;;;;;;2.83;0.77;;;23.90;66.50;;;;;;4996132;28;20058;-22
2022/09/07 08:11:14;;;;;;;1.13;0.57;;;24.00;66.40;;;;;;4993440;28;20049;-22
2022/09/07 08:13:40;;;;;;;2.22;0.60;;;24.00;66.40;;;;;;5000379;28;20050;-27
2022/09/07 08:16:06;;;;;;;1.35;0.80;;;24.00;66.20;;;;;;4994890;28;20077;-25
2022/09/07 08:18:33;;;;;;;1.45;0.70;;;24.00;66.30;;;;;;4998546;28;20132;-30
2022/09/07 08:21:00;;;;;;;2.25;0.77;;;24.00;66.10;;;;;;4994689;28;20050;-22
2022/09/07 08:23:26;;;;;;;1.42;0.70;;;24.00;66.20;;;;;;4996007;28;20046;-23
2022/09/07 08:25:53;;;;;;;1.15;0.68;;;24.00;66.20;;;;;;4998418;28;20100;-24
2022/09/07 08:28:20;;;;;;;1.23;0.70;;;24.00;66.10;;;;;;4996206;28;20084;-23
2022/09/07 08:30:46;;;;;;;2.58;0.60;;;24.00;66.20;;;;;;4999766;28;20082;-22
2022/09/07 08:33:11;;;;;;;2.45;0.88;;;24.00;66.10;;;;;;4995374;28;20465;-23
2022/09/07 08:35:37;;;;;;;1.60;0.68;;;24.00;66.20;;;;;;4995397;28;20096;-23
2022/09/07 08:38:02;;;;;;;0.60;0.50;;;24.00;66.20;;;;;;5000689;28;20527;-28
2022/09/07 08:40:28;;;;;;;0.60;0.40;;;23.90;66.00;;;;;;4997559;28;20076;-24
2022/09/07 08:42:54;;;;;;;1.13;0.60;;;24.00;66.10;;;;;;4977113;28;20087;-22
2022/09/07 08:45:26;;;;;;;2.50;0.68;;;23.90;66.10;;;;;;4994238;28;20078;-21
2022/09/07 08:47:52;;;;;;;1.13;0.68;;;24.00;66.10;;;;;;4981237;28;20128;-27
2022/09/07 08:50:20;;;;;;;1.95;0.77;;;24.00;66.10;;;;;;4996509;28;20513;-23
2022/09/07 08:53:11;;;;;;;2.10;0.68;;;24.00;66.00;;;;;;4998906;28;20063;-25
2022/09/07 08:55:45;;;;;;;1.67;0.60;;;24.00;66.00;;;;;;4996846;28;20174;-24
2022/09/07 08:58:11;;;;;;;1.13;0.70;;;24.00;66.10;;;;;;4997198;28;20129;-22
2022/09/07 09:00:38;;;;;;;0.93;0.60;;;24.10;66.00;;;;;;4996161;28;20227;-23
2022/09/07 09:03:07;;;;;;;2.35;0.40;;;24.00;66.10;;;;;;4996972;28;20038;-24
2022/09/07 09:05:38;;;;;;;1.45;0.75;;;24.00;66.30;;;;;;4994732;28;20061;-21
2022/09/07 09:08:10;;;;;;;0.65;0.40;;;24.00;66.30;;;;;;4995226;28;20041;-22
2022/09/07 09:10:52;;;;;;;1.23;0.70;;;24.00;66.40;;;;;;4993008;28;20183;-24
2022/09/07 09:13:22;;;;;;;0.82;0.50;;;24.00;66.30;;;;;;4992879;28;20034;-22
2022/09/07 09:16:11;;;;;;;1.92;0.70;;;24.00;66.30;;;;;;4992442;28;20045;-22
2022/09/07 09:18:40;;;;;;;0.95;0.50;;;24.00;66.30;;;;;;4993848;28;20386;-23
2022/09/07 09:21:13;;;;;;;0.77;0.70;;;24.10;66.20;;;;;;4992059;28;20035;-25
2022/09/07 09:23:43;;;;;;;0.47;0.38;;;24.10;66.10;;;;;;4996270;28;20180;-23
2022/09/07 09:26:16;;;;;;;0.73;0.70;;;24.00;66.10;;;;;;4998023;28;20486;-23
2022/09/07 09:28:41;;;;;;;1.30;0.73;;;24.00;66.10;;;;;;4996097;28;20037;-24
2022/09/07 09:31:14;;;;;;;1.27;1.00;;;24.00;66.10;;;;;;4995299;28;20051;-22
2022/09/07 09:33:41;;;;;;;2.95;0.40;;;24.00;66.00;;;;;;4997068;28;20068;-22
2022/09/07 09:36:18;;;;;;;1.23;0.65;;;23.90;66.20;;;;;;4993687;28;20046;-22
2022/09/07 09:38:43;;;;;;;0.70;0.50;;;24.00;66.30;;;;;;4998739;28;20038;-23
2022/09/07 09:41:13;;;;;;;0.70;0.60;;;24.00;66.10;;;;;;4992005;28;20110;-22
2022/09/07 09:43:51;;;;;;;0.65;0.47;;;24.00;66.90;;;;;;4979059;28;20038;-24
2022/09/07 09:46:24;;;;;;;0.73;0.57;;;24.00;65.90;;;;;;4996477;28;20086;-27
2022/09/07 09:49:19;;;;;;;0.55;0.50;;;24.10;66.00;;;;;;4998051;28;20638;-23
2022/09/07 09:51:51;;;;;;;0.68;0.55;;;24.00;65.90;;;;;;4989050;28;20493;-22
2022/09/07 09:54:39;;;;;;;0.50;0.38;;;24.10;65.90;;;;;;4993921;28;20564;-22
2022/09/07 09:57:05;;;;;;;0.60;0.30;;;24.10;66.00;;;;;;4994850;28;20039;-22
2022/09/07 09:59:31;;;;;;;2.53;0.70;;;24.10;65.80;;;;;;4992090;28;20083;-23
2022/09/07 10:01:57;;;;;;;2.05;0.57;;;24.10;65.90;;;;;;4994843;28;20103;-24
2022/09/07 10:04:22;;;;;;;0.82;0.40;;;24.00;65.90;;;;;;4995155;28;20058;-26
2022/09/07 10:06:56;;;;;;;1.40;0.55;;;24.10;66.00;;;;;;4976559;28;20047;-24
2022/09/07 10:09:25;;;;;;;;;;;24.10;65.90;;;;;;4989007;28;20050;-26
2022/09/07 10:11:59;;;;;;;1.75;0.55;;;24.10;65.90;;;;;;4993329;28;19925;-23
2022/09/07 10:14:35;;;;;;;0.80;0.40;;;24.10;65.90;;;;;;4974826;28;20125;-25
2022/09/07 10:17:29;;;;;;;2.15;0.73;;;24.10;65.80;;;;;;4972217;28;20061;-26
2022/09/07 10:20:21;;;;;;;0.75;0.40;;;24.10;65.80;;;;;;4986141;28;20065;-26
2022/09/07 10:22:53;;;;;;;0.70;0.43;;;24.10;65.80;;;;;;4972535;28;20050;-27
2022/09/07 10:25:44;;;;;;;1.95;0.32;;;24.10;65.90;;;;;;4622795;28;10000421;-24
2022/09/07 10:28:13;;;;;;;0.80;0.38;;;24.10;65.90;;;;;;4976364;28;20664;-24
2022/09/07 10:30:56;;;;;;;0.50;0.47;;;24.10;65.80;;;;;;4721501;28;10000647;-29
2022/09/07 10:33:43;;;;;;;0.70;0.40;;;24.10;65.60;;;;;;4971748;28;20247;-24
2022/09/07 10:36:19;;;;;;;1.05;0.85;;;24.10;65.50;;;;;;4974661;28;20747;-24
2022/09/07 10:39:09;;;;;;;0.70;0.50;;;24.10;65.30;;;;;;4988937;28;20666;-22
2022/09/07 10:41:44;;;;;;;0.70;0.60;;;24.00;65.30;;;;;;4981980;28;20137;-24
2022/09/07 10:44:24;;;;;;;1.25;0.80;;;24.10;65.00;;;;;;4974083;28;20056;-33
2022/09/07 10:47:02;;;;;;;0.80;0.55;;;24.00;64.90;;;;;;4983536;28;20054;-23
2022/09/07 10:50:05;;;;;;;2.75;0.60;;;24.00;65.20;;;;;;4983300;28;20065;-28
2022/09/07 10:53:10;;;;;;;0.50;0.40;;;24.10;66.10;;;;;;5001163;28;21401;-26
2022/09/07 10:55:39;;;;;;;2.10;0.77;;;24.10;66.20;;;;;;4993570;28;20545;-22
2022/09/07 10:58:22;;;;;;;0.68;0.60;;;24.10;66.60;;;;;;4635511;28;9999957;-25
2022/09/07 11:01:03;;;;;;;1.00;0.55;;;24.10;66.60;;;;;;5000443;28;20136;-22
2022/09/07 11:03:31;;;;;;;1.20;0.60;;;24.00;67.30;;;;;;4646001;28;9999711;-25
2022/09/07 11:06:11;;;;;;;0.63;0.43;;;24.00;67.40;;;;;;4998012;28;20118;-22
2022/09/07 11:08:59;;;;;;;0.85;0.65;;;24.00;67.10;;;;;;4997649;28;20215;-28
2022/09/07 11:11:42;;;;;;;1.27;0.55;;;24.10;67.10;;;;;;4987151;28;20531;-24
2022/09/07 11:14:18;;;;;;;0.47;0.30;;;24.10;67.80;;;;;;4977938;28;20627;-24
2022/09/07 11:16:57;;;;;;;0.98;0.60;;;24.00;67.10;;;;;;4981644;28;20567;-22
2022/09/07 11:19:31;;;;;;;0.95;0.50;;;24.00;66.60;;;;;;4994968;28;20119;-22
2022/09/07 11:21:59;;;;;;;;;;;24.00;67.10;;;;;;4993872;28;20048;-22
2022/09/07 11:24:32;;;;;;;1.13;0.38;;;24.10;66.70;;;;;;4991571;28;19925;-22
2022/09/07 11:27:01;;;;;;;1.02;0.57;;;24.10;67.00;;;;;;4976236;28;20046;-21
2022/09/07 11:29:32;;;;;;;1.05;0.50;;;24.10;67.30;;;;;;4973947;28;20047;-24
2022/09/07 11:32:01;;;;;;;3.50;0.98;;;24.10;67.10;;;;;;4980985;28;20539;-22
2022/09/07 11:34:46;;;;;;;2.28;0.77;;;24.10;66.90;;;;;;4978596;28;20390;-23
2022/09/07 11:37:22;;;;;;;1.50;0.65;;;24.10;66.50;;;;;;4990595;28;21301;-22
2022/09/07 11:40:13;;;;;;;1.55;0.70;;;24.20;66.40;;;;;;4973590;28;20131;-24
2022/09/07 11:42:47;;;;;;;1.77;0.73;;;24.20;66.10;;;;;;4974142;28;20054;-25
2022/09/07 11:45:12;;;;;;;1.35;0.65;;;24.20;66.00;;;;;;4988014;28;20698;-27
2022/09/07 11:47:43;;;;;;;4.05;1.08;;;24.20;66.00;;;;;;4975121;28;20056;-25
2022/09/07 11:50:17;;;;;;;4.13;1.20;;;24.20;65.70;;;;;;4986864;28;21757;-22
2022/09/07 11:52:47;;;;;;;4.13;1.20;;;24.20;65.60;;;;;;4988113;27;21292;-21
2022/09/07 11:55:26;;;;;;;4.10;1.17;;;24.20;66.40;;;;;;4995253;28;20087;-24
2022/09/07 11:58:11;;;;;;;3.42;1.13;;;24.20;65.70;;;;;;4996297;28;20107;-23
2022/09/07 12:00:37;;;;;;;5.22;0.73;;;24.20;65.90;;;;;;5008967;28;20378;-22
2022/09/07 12:03:03;;;;;;;3.78;1.10;;;24.20;65.70;;;;;;4993869;28;20049;-22
2022/09/07 12:06:06;;;;;;;4.65;1.00;;;24.20;65.70;;;;;;4998409;28;20138;-23
2022/09/07 12:09:01;;;;;;;3.40;0.90;;;24.20;65.40;;;;;;4998632;28;20041;-23
2022/09/07 12:11:27;;;;;;;2.72;1.23;;;24.20;65.40;;;;;;4997265;28;20112;-24
2022/09/07 12:14:04;;;;;;;2.72;1.10;;;24.20;65.50;;;;;;4998599;28;20113;-23
2022/09/07 12:16:58;;;;;;;2.55;0.90;;;24.20;65.30;;;;;;5000437;28;20069;-21
2022/09/07 12:19:25;;;;;;;1.85;1.10;;;24.30;65.50;;;;;;4996051;28;20178;-25
2022/09/07 12:21:50;;;;;;;2.42;0.95;;;24.20;65.60;;;;;;5000701;28;20064;-24
2022/09/07 12:24:36;;;;;;;4.10;0.82;;;24.30;65.80;;;;;;4985194;28;20499;-26
2022/09/07 12:27:07;;;;;;;3.65;1.05;;;24.30;65.90;;;;;;4995861;27;20057;-25
2022/09/07 12:29:33;;;;;;;2.10;0.95;;;24.30;65.80;;;;;;4991430;28;20046;-22
2022/09/07 12:32:00;;;;;;;5.07;1.10;;;24.30;65.80;;;;;;4974339;28;20038;-22
2022/09/07 12:34:31;;;;;;;1.55;0.77;;;24.30;65.90;;;;;;4971451;28;20709;-22
2022/09/07 12:37:09;;;;;;;1.90;0.82;;;24.30;66.10;;;;;;4973181;28;20046;-24
2022/09/07 12:39:36;;;;;;;2.42;1.23;;;24.30;66.00;;;;;;4977723;28;20042;-23
2022/09/07 12:42:04;;;;;;;3.95;0.90;;;24.20;66.00;;;;;;4973936;28;20044;-22
2022/09/07 12:44:30;;;;;;;2.55;1.00;;;24.30;66.10;;;;;;4971203;28;20046;-25
2022/09/07 12:46:57;;;;;;;1.88;0.70;;;24.30;66.00;;;;;;4974279;28;20352;-25
2022/09/07 12:49:44;;;;;;;1.83;1.05;;;24.30;65.90;;;;;;4974735;28;20051;-24
2022/09/07 12:52:24;;;;;;;2.75;1.05;;;24.30;66.00;;;;;;4989268;28;20074;-22
2022/09/07 12:55:03;;;;;;;2.67;0.70;;;24.30;65.80;;;;;;4987810;28;20137;-43
2022/09/07 12:57:55;;;;;;;3.47;0.85;;;24.30;65.80;;;;;;4974932;28;20106;-48
2022/09/07 13:00:40;;;;;;;2.17;1.40;;;24.30;65.80;;;;;;4987849;28;20507;-44
2022/09/07 13:03:30;;;;;;;4.30;1.25;;;24.30;66.00;;;;;;4987334;28;20521;-43
2022/09/07 13:05:59;;;;;;;3.42;1.25;;;24.30;66.30;;;;;;4980718;28;20124;-43
2022/09/07 13:08:50;;;;;;;1.08;0.68;;;24.30;66.50;;;;;;4990450;28;20132;-48
2022/09/07 13:11:18;;;;;;;2.67;1.33;;;24.30;66.60;;;;;;4986406;28;20509;-50